Terminal Aerodrome Forecast
Issued by NWS Pocatello, ID

Home | Current Version | Previous Version | Text Only | Print | Product List | Glossary On
Versions: 1 2 3 4 5 6 7 8 9 10 11 12 13 14 15 16 17 18 19 20 21 22 23
000
FTUS45 KPIH 221100
TAFPIH
TAF
KPIH 221120Z 2212/2312 24015G25KT P6SM VCSH BKN007 OVC015
     FM222000 26018G28KT P6SM SCT015 BKN080
     FM230300 23011KT P6SM SCT080
     FM230900 21005KT P6SM SCT080=

USA.gov is the U.S. government's official web portal to all federal, state and local government web resources and services.